Time;durP1;ratioP1;P1;durP2;ratioP2;P2;SDS_P1;SDS_P2;PMS_P1;PMS_P2;Temp;Humidity;BMP_temperature;BMP_pressure;BME280_temperature;BME280_humidity;BME280_pressure;Samples;Min_cycle;Max_cycle;Signal;HPM_P1;HPM_P2
2021/01/27 00:00:15;;;;;;;13.10;6.47;;;1.90;99.90;;;;;;4978966;28;20192;-89
2021/01/27 00:02:41;;;;;;;9.45;6.50;;;1.80;99.90;;;;;;4977760;28;20578;-90
2021/01/27 00:05:11;;;;;;;8.00;6.40;;;1.80;99.90;;;;;;4978127;28;20698;-89
2021/01/27 00:07:37;;;;;;;9.00;6.90;;;1.90;99.90;;;;;;4977997;28;20183;-90
2021/01/27 00:10:05;;;;;;;9.23;6.30;;;1.90;99.90;;;;;;4977756;28;20189;-90
2021/01/27 00:12:31;;;;;;;7.10;5.93;;;1.80;99.90;;;;;;4978564;28;20202;-89
2021/01/27 00:14:58;;;;;;;10.10;6.43;;;1.80;99.90;;;;;;4977513;28;20242;-90
2021/01/27 00:17:24;;;;;;;6.50;4.85;;;1.70;99.90;;;;;;4980869;28;20235;-88
2021/01/27 00:19:51;;;;;;;9.60;6.20;;;1.70;99.90;;;;;;4988780;28;20183;-89
2021/01/27 00:22:17;;;;;;;7.80;6.10;;;1.60;99.90;;;;;;4987117;28;20200;-90
2021/01/27 00:24:43;;;;;;;6.38;4.95;;;1.60;99.90;;;;;;4979356;28;20234;-90
2021/01/27 00:27:09;;;;;;;7.13;6.43;;;1.60;99.90;;;;;;4978233;28;20204;-90
2021/01/27 00:29:36;;;;;;;9.90;6.45;;;1.70;99.90;;;;;;4977965;28;20269;-89
2021/01/27 00:32:03;;;;;;;7.45;5.25;;;1.60;99.90;;;;;;4977030;28;20200;-90
2021/01/27 00:34:30;;;;;;;8.00;5.63;;;1.60;99.90;;;;;;4977005;28;20273;-90
2021/01/27 00:36:56;;;;;;;8.13;4.97;;;1.60;99.90;;;;;;4976757;28;20215;-89
2021/01/27 00:39:22;;;;;;;8.15;6.45;;;1.50;99.90;;;;;;4976803;28;20236;-89
2021/01/27 00:41:48;;;;;;;4.88;4.18;;;1.60;99.90;;;;;;4976652;28;20262;-89
2021/01/27 00:44:15;;;;;;;8.27;4.57;;;1.60;99.90;;;;;;4977734;28;20211;-90
2021/01/27 00:46:41;;;;;;;6.75;4.68;;;1.60;99.90;;;;;;4977021;28;20596;-90
2021/01/27 00:49:08;;;;;;;7.05;6.07;;;1.60;99.90;;;;;;4977799;28;20548;-89
2021/01/27 00:51:34;;;;;;;9.82;4.95;;;1.60;99.90;;;;;;4977562;28;20200;-90
2021/01/27 00:54:01;;;;;;;7.65;4.95;;;1.60;99.90;;;;;;4978068;28;20218;-89
2021/01/27 00:56:27;;;;;;;8.50;5.72;;;1.50;99.90;;;;;;4982584;28;20202;-89
2021/01/27 00:58:53;;;;;;;5.90;5.00;;;1.50;99.90;;;;;;4982583;28;20195;-90
2021/01/27 01:01:20;;;;;;;7.55;5.78;;;1.50;99.90;;;;;;4961675;28;20202;-91
2021/01/27 01:03:46;;;;;;;7.10;5.55;;;1.50;99.90;;;;;;4979994;28;20251;-89
2021/01/27 01:06:13;;;;;;;7.47;6.40;;;1.50;99.90;;;;;;4990682;28;20682;-90
2021/01/27 01:08:39;;;;;;;8.95;5.35;;;1.60;99.90;;;;;;4991803;28;20197;-88
2021/01/27 01:11:06;;;;;;;7.60;5.55;;;1.50;99.90;;;;;;4984258;28;20210;-90
2021/01/27 01:13:32;;;;;;;6.50;4.65;;;1.60;99.90;;;;;;4984088;28;20224;-89
2021/01/27 01:15:59;;;;;;;8.00;5.43;;;1.60;99.90;;;;;;4977911;28;20191;-90
2021/01/27 01:18:25;;;;;;;8.15;5.45;;;1.60;99.90;;;;;;4977586;28;20656;-90
2021/01/27 01:20:51;;;;;;;6.40;4.50;;;1.50;99.90;;;;;;4977604;28;20203;-89
2021/01/27 01:23:21;;;;;;;7.00;5.22;;;1.50;99.90;;;;;;4978040;28;20210;-89
2021/01/27 01:25:48;;;;;;;9.30;5.70;;;1.50;99.90;;;;;;4984370;28;20191;-89
2021/01/27 01:28:15;;;;;;;7.47;4.63;;;1.50;99.90;;;;;;4984150;28;20231;-89
2021/01/27 01:30:43;;;;;;;7.30;4.65;;;1.60;99.90;;;;;;4976617;28;20192;-89
2021/01/27 01:33:12;;;;;;;6.82;4.70;;;1.60;99.90;;;;;;4977520;28;20250;-90
2021/01/27 01:35:39;;;;;;;7.05;5.50;;;1.70;99.90;;;;;;4977119;28;20210;-90
2021/01/27 01:38:05;;;;;;;7.28;4.90;;;1.70;99.90;;;;;;4978756;28;20242;-90
2021/01/27 01:40:35;;;;;;;8.75;5.32;;;1.70;99.90;;;;;;4982034;28;20199;-89
2021/01/27 01:43:08;;;;;;;5.25;3.83;;;1.80;99.90;;;;;;4978106;28;20201;-89
2021/01/27 01:45:37;;;;;;;7.68;5.30;;;1.80;99.90;;;;;;4977907;28;20261;-90
2021/01/27 01:48:14;;;;;;;5.47;4.28;;;1.80;99.90;;;;;;4975779;28;20196;-90
2021/01/27 01:50:41;;;;;;;6.10;4.38;;;1.80;99.90;;;;;;4976618;28;20203;-90
2021/01/27 01:53:07;;;;;;;7.85;4.65;;;1.70;99.90;;;;;;4977162;28;20200;-89
2021/01/27 01:55:35;;;;;;;6.57;4.32;;;1.80;99.90;;;;;;4977376;28;20185;-87
2021/01/27 01:58:02;;;;;;;6.15;5.13;;;1.70;99.90;;;;;;4977727;28;20187;-89
2021/01/27 02:00:32;;;;;;;6.60;5.45;;;1.70;99.90;;;;;;4980816;28;20200;-89
2021/01/27 02:02:58;;;;;;;5.78;5.13;;;1.80;99.90;;;;;;4980268;28;20195;-90
2021/01/27 02:05:27;;;;;;;5.72;3.97;;;1.80;99.90;;;;;;4980367;28;20215;-89
2021/01/27 02:07:55;;;;;;;5.45;3.65;;;1.90;99.90;;;;;;4980877;28;20268;-89
2021/01/27 02:10:21;;;;;;;6.10;3.88;;;1.90;99.90;;;;;;4980599;28;20252;-89
2021/01/27 02:13:22;;;;;;;8.18;4.55;;;1.90;99.90;;;;;;4979508;28;20601;-89
2021/01/27 02:16:09;;;;;;;5.05;4.00;;;1.90;99.90;;;;;;4980129;28;20214;-89
2021/01/27 02:19:03;;;;;;;4.80;3.90;;;2.00;99.90;;;;;;4979344;28;20199;-89
2021/01/27 02:22:02;;;;;;;8.05;4.78;;;2.00;99.90;;;;;;4979586;28;20202;-90
2021/01/27 02:25:17;;;;;;;7.00;4.78;;;2.10;99.90;;;;;;4973194;28;20196;-90
2021/01/27 02:27:47;;;;;;;5.43;4.63;;;2.10;99.90;;;;;;4979546;28;20206;-90
2021/01/27 02:30:40;;;;;;;5.93;4.15;;;2.10;99.90;;;;;;4979261;28;20208;-90
2021/01/27 02:33:40;;;;;;;8.60;4.00;;;2.10;99.90;;;;;;4997864;28;20196;-89
2021/01/27 02:36:12;;;;;;;7.18;4.18;;;2.10;99.90;;;;;;4982001;28;20277;-89
2021/01/27 02:38:42;;;;;;;5.20;3.78;;;2.10;99.90;;;;;;4979285;28;20235;-89
2021/01/27 02:41:14;;;;;;;8.73;3.92;;;2.20;99.90;;;;;;4979107;28;20194;-89
2021/01/27 02:43:43;;;;;;;3.50;3.10;;;2.20;99.90;;;;;;4978800;28;20208;-90
2021/01/27 02:46:16;;;;;;;6.30;4.20;;;2.20;99.90;;;;;;4978740;28;20196;-89
2021/01/27 02:48:45;;;;;;;6.10;4.13;;;2.10;99.90;;;;;;4978980;28;20185;-89
2021/01/27 02:51:19;;;;;;;6.25;4.60;;;2.10;99.90;;;;;;4978614;28;20608;-89
2021/01/27 02:53:50;;;;;;;7.35;4.40;;;2.10;99.90;;;;;;4978530;28;20220;-90
2021/01/27 02:56:23;;;;;;;5.95;4.28;;;2.00;99.90;;;;;;4978456;28;20204;-89
2021/01/27 02:58:57;;;;;;;3.90;2.85;;;2.00;99.90;;;;;;4978320;28;20250;-90
2021/01/27 03:01:31;;;;;;;6.05;4.00;;;1.90;99.90;;;;;;4978839;28;20198;-89
2021/01/27 03:04:02;;;;;;;6.15;4.22;;;1.90;99.90;;;;;;4978160;28;20192;-89
2021/01/27 03:06:30;;;;;;;5.70;4.03;;;1.80;99.90;;;;;;4978777;28;20209;-89
2021/01/27 03:09:02;;;;;;;6.45;4.40;;;1.80;99.90;;;;;;4978246;28;20225;-89
2021/01/27 03:11:31;;;;;;;7.47;4.40;;;1.70;99.90;;;;;;4978695;28;20213;-91
2021/01/27 03:13:58;;;;;;;5.68;4.10;;;1.70;99.90;;;;;;4978053;28;20216;-89
2021/01/27 03:16:29;;;;;;;5.35;4.20;;;1.70;99.90;;;;;;4979020;28;20222;-91
2021/01/27 03:19:02;;;;;;;6.00;3.88;;;1.70;99.90;;;;;;4978235;28;20705;-91
2021/01/27 03:21:34;;;;;;;5.15;3.20;;;1.70;99.90;;;;;;4978465;28;20196;-91
2021/01/27 03:24:06;;;;;;;5.72;3.50;;;1.60;99.90;;;;;;4978258;28;20209;-91
2021/01/27 03:26:40;;;;;;;5.13;3.83;;;1.60;99.90;;;;;;4977810;28;20195;-90
2021/01/27 03:29:14;;;;;;;6.45;4.35;;;1.60;99.90;;;;;;4977624;28;20196;-90
2021/01/27 03:31:40;;;;;;;5.72;3.63;;;1.60;99.90;;;;;;4977929;28;20195;-91
2021/01/27 03:34:11;;;;;;;5.40;3.63;;;1.50;99.90;;;;;;4977771;28;20595;-90
2021/01/27 03:36:42;;;;;;;5.25;3.95;;;1.60;99.90;;;;;;4977601;28;20194;-89
2021/01/27 03:39:10;;;;;;;5.30;3.75;;;1.60;99.90;;;;;;4977204;28;20270;-89
2021/01/27 03:41:42;;;;;;;5.50;3.42;;;1.60;99.90;;;;;;4960999;28;20191;-90
2021/01/27 03:44:14;;;;;;;3.92;2.92;;;1.60;99.90;;;;;;4980438;28;20202;-90
2021/01/27 03:46:46;;;;;;;4.20;2.67;;;1.70;99.90;;;;;;4961434;28;20188;-89
2021/01/27 03:49:24;;;;;;;4.50;3.67;;;1.70;99.90;;;;;;4982918;28;20203;-90
2021/01/27 03:51:58;;;;;;;3.70;3.28;;;1.70;99.90;;;;;;4981031;28;20201;-89
2021/01/27 03:54:27;;;;;;;8.75;4.45;;;1.70;99.90;;;;;;4978147;28;20211;-90
2021/01/27 03:56:58;;;;;;;5.60;3.38;;;1.70;99.90;;;;;;4978387;28;20192;-91
2021/01/27 03:59:24;;;;;;;7.70;4.72;;;1.80;99.90;;;;;;4978153;28;20184;-90
2021/01/27 04:01:53;;;;;;;7.40;4.05;;;1.80;99.90;;;;;;4978237;28;20203;-90
2021/01/27 04:04:20;;;;;;;4.65;3.30;;;1.80;99.90;;;;;;4977885;28;20254;-90
2021/01/27 04:06:47;;;;;;;7.53;4.38;;;1.80;99.90;;;;;;4978079;28;20246;-91
2021/01/27 04:09:15;;;;;;;4.07;3.65;;;1.70;99.90;;;;;;4977599;28;20222;-90
2021/01/27 04:11:42;;;;;;;4.97;3.60;;;1.70;99.90;;;;;;4978126;28;20203;-90
2021/01/27 04:14:08;;;;;;;5.57;3.47;;;1.80;99.90;;;;;;4978737;28;20223;-91
2021/01/27 04:16:35;;;;;;;3.45;2.67;;;1.80;99.90;;;;;;4958785;28;20672;-90
2021/01/27 04:19:03;;;;;;;5.45;3.42;;;1.80;99.90;;;;;;4958800;28;20219;-91
2021/01/27 04:21:29;;;;;;;7.43;3.00;;;1.80;99.90;;;;;;4958739;28;20203;-91
2021/01/27 04:23:55;;;;;;;4.53;3.35;;;1.80;99.90;;;;;;4958780;28;20200;-89
2021/01/27 04:26:23;;;;;;;6.65;3.85;;;1.80;99.90;;;;;;4958259;28;20248;-90
2021/01/27 04:28:49;;;;;;;4.72;3.60;;;1.80;99.90;;;;;;4971070;28;20256;-91
2021/01/27 04:31:16;;;;;;;5.25;3.33;;;1.80;99.90;;;;;;4978339;28;20193;-90
2021/01/27 04:33:42;;;;;;;5.03;2.95;;;1.70;99.90;;;;;;4983898;28;20218;-91
2021/01/27 04:36:09;;;;;;;4.65;3.00;;;1.80;99.90;;;;;;4977149;28;20208;-90
2021/01/27 04:38:35;;;;;;;4.07;3.13;;;1.80;99.90;;;;;;4976302;28;20216;-91
2021/01/27 04:41:03;;;;;;;4.70;2.90;;;1.80;99.90;;;;;;4976988;28;20644;-90
2021/01/27 04:43:33;;;;;;;3.88;3.08;;;1.70;99.90;;;;;;4976789;28;20525;-90
2021/01/27 04:46:04;;;;;;;7.45;3.00;;;1.70;99.90;;;;;;4976663;28;20189;-90
2021/01/27 04:48:40;;;;;;;10.68;3.70;;;1.70;99.90;;;;;;4977343;28;20195;-90
2021/01/27 04:51:13;;;;;;;5.35;3.42;;;1.70;99.90;;;;;;4976832;28;20209;-90
2021/01/27 04:53:50;;;;;;;4.93;3.08;;;1.70;99.90;;;;;;4976671;28;20278;-90
2021/01/27 04:56:50;;;;;;;7.95;2.80;;;1.70;99.90;;;;;;4976158;28;20249;-90
2021/01/27 04:59:26;;;;;;;4.18;3.05;;;1.70;99.90;;;;;;4931428;28;20204;-90
2021/01/27 05:02:09;;;;;;;3.67;3.20;;;1.70;99.90;;;;;;4977068;28;20204;-91
2021/01/27 05:04:49;;;;;;;3.97;2.83;;;1.70;99.90;;;;;;4977278;28;20211;-91
2021/01/27 05:07:21;;;;;;;6.15;3.45;;;1.70;99.90;;;;;;4976556;28;20194;-90
2021/01/27 05:09:53;;;;;;;5.88;3.85;;;1.60;99.90;;;;;;4977602;28;20201;-91
2021/01/27 05:12:20;;;;;;;7.20;4.15;;;1.60;99.90;;;;;;4976414;28;20203;-89
2021/01/27 05:14:48;;;;;;;6.53;4.30;;;1.60;99.90;;;;;;4977258;28;20234;-90
2021/01/27 05:17:18;;;;;;;7.85;5.70;;;1.70;99.90;;;;;;4977004;28;20255;-89
2021/01/27 05:19:45;;;;;;;7.32;5.03;;;1.70;99.90;;;;;;4976759;28;20206;-90
2021/01/27 05:22:13;;;;;;;8.80;6.10;;;1.70;99.90;;;;;;4977574;28;20694;-89
2021/01/27 05:24:42;;;;;;;7.25;5.28;;;1.70;99.90;;;;;;4979416;28;20218;-89
2021/01/27 05:27:13;;;;;;;8.80;6.60;;;1.70;99.90;;;;;;4981603;28;20203;-89
2021/01/27 05:29:43;;;;;;;7.57;4.53;;;1.70;99.90;;;;;;4990364;28;20291;-89
2021/01/27 05:32:12;;;;;;;8.02;5.63;;;1.70;99.90;;;;;;4989875;28;20207;-89
2021/01/27 05:34:41;;;;;;;12.40;6.25;;;1.70;99.90;;;;;;4977098;28;20676;-89
2021/01/27 05:37:11;;;;;;;66.47;33.92;;;1.70;99.90;;;;;;4981935;28;20223;-89
2021/01/27 05:39:39;;;;;;;67.90;36.15;;;1.70;99.90;;;;;;4983011;28;20691;-90
2021/01/27 05:42:21;;;;;;;10.27;6.65;;;1.70;99.90;;;;;;4989948;28;20234;-88
2021/01/27 05:44:50;;;;;;;8.98;7.25;;;1.80;99.90;;;;;;4991691;28;20681;-88
2021/01/27 05:47:38;;;;;;;9.13;7.50;;;1.80;99.90;;;;;;4985571;28;20200;-89
2021/01/27 05:50:28;;;;;;;26.02;19.52;;;1.70;99.90;;;;;;4985830;28;20253;-85
2021/01/27 05:52:55;;;;;;;16.08;9.95;;;1.80;99.90;;;;;;4984994;28;20247;-89
2021/01/27 05:55:21;;;;;;;17.10;13.50;;;1.80;99.90;;;;;;4979345;28;20246;-89
2021/01/27 05:57:58;;;;;;;14.95;11.50;;;1.80;99.90;;;;;;4979566;28;20196;-87
2021/01/27 06:00:27;;;;;;;5.43;3.78;;;1.80;99.90;;;;;;4977663;28;20249;-87
2021/01/27 06:02:57;;;;;;;4.20;3.20;;;1.80;99.90;;;;;;4978003;28;20197;-86
2021/01/27 06:05:36;;;;;;;4.13;3.72;;;1.80;99.90;;;;;;4976817;28;20201;-86
2021/01/27 06:08:14;;;;;;;4.75;3.60;;;1.80;99.90;;;;;;4977700;28;20564;-87
2021/01/27 06:10:40;;;;;;;3.50;2.35;;;1.80;99.90;;;;;;4977136;28;20204;-87
2021/01/27 06:13:23;;;;;;;4.05;3.05;;;1.80;99.90;;;;;;4977114;28;20203;-87
2021/01/27 06:15:49;;;;;;;3.85;2.55;;;1.80;99.90;;;;;;4975888;28;20227;-86
2021/01/27 06:18:29;;;;;;;3.70;2.60;;;1.80;99.90;;;;;;4976971;28;20187;-87
2021/01/27 06:21:19;;;;;;;5.03;2.60;;;1.80;99.90;;;;;;4976354;28;20203;-86
2021/01/27 06:24:05;;;;;;;5.43;2.80;;;1.80;99.90;;;;;;4978245;28;20192;-88
2021/01/27 06:27:01;;;;;;;4.75;2.95;;;1.80;99.90;;;;;;4977313;28;20196;-88
2021/01/27 06:29:45;;;;;;;4.43;2.95;;;1.70;99.90;;;;;;4977272;28;20263;-86
2021/01/27 06:32:28;;;;;;;6.82;4.13;;;1.70;99.90;;;;;;4993639;28;20175;-86
2021/01/27 06:35:16;;;;;;;4.28;2.50;;;1.70;99.90;;;;;;4974045;28;20709;-86
2021/01/27 06:38:26;;;;;;;3.90;2.88;;;1.70;99.90;;;;;;4975345;28;20703;-85
2021/01/27 06:41:02;;;;;;;5.07;2.75;;;1.70;99.90;;;;;;4957938;28;20204;-88
2021/01/27 06:43:59;;;;;;;4.10;2.85;;;1.70;99.90;;;;;;4971712;28;20279;-86
2021/01/27 06:46:44;;;;;;;5.03;2.50;;;1.70;99.90;;;;;;4978653;28;20206;-87
2021/01/27 06:49:50;;;;;;;3.38;3.03;;;1.70;99.90;;;;;;4979463;28;20265;-87
2021/01/27 06:52:53;;;;;;;4.90;2.72;;;1.70;99.90;;;;;;4986403;28;20268;-87
2021/01/27 06:55:29;;;;;;;4.20;3.30;;;1.70;99.90;;;;;;4985050;28;20216;-88
2021/01/27 06:58:26;;;;;;;7.93;3.58;;;1.70;99.90;;;;;;4999690;28;20195;-89
2021/01/27 07:01:08;;;;;;;4.70;3.15;;;1.70;99.90;;;;;;4978633;28;20200;-89
2021/01/27 07:04:13;;;;;;;5.18;3.65;;;1.70;99.90;;;;;;4981359;28;20254;-89
2021/01/27 07:07:15;;;;;;;8.07;4.13;;;1.70;99.90;;;;;;4991052;28;20191;-90
2021/01/27 07:10:12;;;;;;;4.60;4.03;;;1.70;99.90;;;;;;4999379;28;20190;-90
2021/01/27 07:12:41;;;;;;;5.20;3.80;;;1.70;99.90;;;;;;4980479;28;20194;-89
2021/01/27 07:15:30;;;;;;;5.13;3.50;;;1.70;99.90;;;;;;4998049;28;20223;-88
2021/01/27 07:18:36;;;;;;;4.55;3.70;;;1.80;99.90;;;;;;4980703;28;20194;-89
2021/01/27 07:21:06;;;;;;;3.42;3.05;;;1.80;99.90;;;;;;4979669;28;20210;-87
2021/01/27 07:23:41;;;;;;;4.93;3.25;;;1.80;99.90;;;;;;4997314;28;20198;-88
2021/01/27 07:26:16;;;;;;;4.35;3.50;;;1.80;99.90;;;;;;4997643;28;20642;-89
2021/01/27 07:28:55;;;;;;;5.30;3.80;;;1.70;99.90;;;;;;4986052;28;20200;-88
2021/01/27 07:31:25;;;;;;;4.10;3.70;;;1.70;99.90;;;;;;4980110;28;20195;-87
2021/01/27 07:33:57;;;;;;;3.58;2.55;;;1.70;99.90;;;;;;4981142;28;20221;-88
2021/01/27 07:36:37;;;;;;;5.63;3.30;;;1.60;99.90;;;;;;4979029;28;20203;-87
2021/01/27 07:39:08;;;;;;;7.63;4.05;;;1.60;99.90;;;;;;4972201;28;20287;-86
2021/01/27 07:41:43;;;;;;;5.97;3.08;;;1.60;99.90;;;;;;4961191;28;20200;-87
2021/01/27 07:44:15;;;;;;;5.05;4.00;;;1.60;99.90;;;;;;4980046;28;20198;-86
2021/01/27 07:46:53;;;;;;;5.07;4.07;;;1.60;99.90;;;;;;4984385;28;20195;-88
2021/01/27 07:49:27;;;;;;;4.93;3.53;;;1.60;99.90;;;;;;4980558;28;20236;-87
2021/01/27 07:51:58;;;;;;;3.60;2.80;;;1.60;99.90;;;;;;4979623;28;20206;-87
2021/01/27 07:54:29;;;;;;;5.00;3.40;;;1.70;99.90;;;;;;4978390;28;20211;-88
2021/01/27 07:57:01;;;;;;;4.75;4.20;;;1.60;99.90;;;;;;4977197;28;20190;-87
2021/01/27 07:59:32;;;;;;;3.88;3.47;;;1.70;99.90;;;;;;4980180;28;20195;-89
2021/01/27 08:02:07;;;;;;;4.65;3.15;;;1.70;99.90;;;;;;4983411;28;20196;-90
2021/01/27 08:04:40;;;;;;;3.92;2.78;;;1.70;99.90;;;;;;4978070;28;20194;-87
2021/01/27 08:07:18;;;;;;;4.45;3.70;;;1.60;99.90;;;;;;4978911;28;20560;-89
2021/01/27 08:09:45;;;;;;;5.15;3.22;;;1.60;99.90;;;;;;4979247;28;20202;-90
2021/01/27 08:12:17;;;;;;;5.10;4.10;;;1.60;99.90;;;;;;4977765;28;20193;-90
2021/01/27 08:15:09;;;;;;;5.15;3.53;;;1.60;99.90;;;;;;4976919;28;20220;-88
2021/01/27 08:18:14;;;;;;;4.80;4.20;;;1.50;99.90;;;;;;4974054;28;20206;-91
2021/01/27 08:20:42;;;;;;;5.20;4.32;;;1.50;99.90;;;;;;4977826;28;20192;-91
2021/01/27 08:23:10;;;;;;;6.93;4.15;;;1.50;99.90;;;;;;4979436;28;20204;-89
2021/01/27 08:25:56;;;;;;;7.45;5.00;;;1.60;99.90;;;;;;4982276;28;20263;-92
2021/01/27 08:28:43;;;;;;;4.88;4.20;;;1.40;99.90;;;;;;4984670;28;20294;-90
2021/01/27 08:31:23;;;;;;;4.90;4.40;;;1.40;99.90;;;;;;4976306;28;20646;-89
2021/01/27 08:33:58;;;;;;;5.90;5.30;;;1.40;99.90;;;;;;4974112;28;20200;-87
2021/01/27 08:37:03;;;;;;;3.97;3.58;;;1.40;99.90;;;;;;4976555;28;20208;-90
2021/01/27 08:39:32;;;;;;;10.90;8.52;;;1.40;99.90;;;;;;4980109;28;20213;-90
2021/01/27 08:42:01;;;;;;;14.38;11.75;;;1.50;99.90;;;;;;4996795;28;20199;-90
2021/01/27 08:44:35;;;;;;;24.80;20.58;;;1.50;99.90;;;;;;4976996;28;20292;-91
2021/01/27 08:47:03;;;;;;;39.90;32.30;;;1.50;99.90;;;;;;4977305;28;20195;-90
2021/01/27 08:49:45;;;;;;;13.05;11.05;;;1.50;99.90;;;;;;4982541;28;20564;-90
2021/01/27 08:52:35;;;;;;;6.70;6.07;;;1.50;99.90;;;;;;4976951;28;20196;-88
2021/01/27 08:55:26;;;;;;;9.18;8.27;;;1.50;99.90;;;;;;4974963;28;20239;-92
2021/01/27 08:58:28;;;;;;;6.05;5.00;;;1.50;99.90;;;;;;4977443;28;20191;-89
2021/01/27 09:00:57;;;;;;;6.50;5.65;;;1.60;99.90;;;;;;4955867;28;20207;-89
2021/01/27 09:03:54;;;;;;;6.45;5.30;;;1.60;99.90;;;;;;4973446;28;20194;-89
2021/01/27 09:06:26;;;;;;;7.03;5.80;;;1.70;99.90;;;;;;4984023;28;20291;-89
2021/01/27 09:08:55;;;;;;;6.07;5.57;;;1.70;99.90;;;;;;4987893;28;20183;-91
2021/01/27 09:11:22;;;;;;;5.82;5.22;;;1.80;99.90;;;;;;4881254;28;20223;-90
2021/01/27 09:13:49;;;;;;;6.28;5.68;;;1.80;99.90;;;;;;4965203;28;20290;-89
2021/01/27 09:16:19;;;;;;;6.13;5.53;;;1.80;99.90;;;;;;4962839;28;20195;-89
2021/01/27 09:18:55;;;;;;;6.15;4.80;;;1.90;99.90;;;;;;4956883;28;20228;-88
2021/01/27 09:21:22;;;;;;;5.32;4.82;;;1.90;99.90;;;;;;4957226;28;20280;-90
2021/01/27 09:24:02;;;;;;;4.53;3.90;;;1.80;99.90;;;;;;4959493;28;20192;-91
2021/01/27 09:26:41;;;;;;;6.50;5.90;;;1.90;99.90;;;;;;4959797;28;20203;-88
2021/01/27 09:29:11;;;;;;;4.78;4.38;;;1.90;99.90;;;;;;4958031;29;20228;-89
2021/01/27 09:31:39;;;;;;;8.02;4.90;;;1.80;99.90;;;;;;4964456;28;20185;-88
2021/01/27 09:34:17;;;;;;;5.95;4.30;;;1.90;99.90;;;;;;4959124;28;20550;-89
2021/01/27 09:36:44;;;;;;;5.95;5.15;;;1.90;99.90;;;;;;4955092;28;20234;-90
2021/01/27 09:39:12;;;;;;;4.50;3.55;;;1.90;99.90;;;;;;4958909;28;20220;-92
2021/01/27 09:41:42;;;;;;;4.32;3.72;;;1.90;99.90;;;;;;4960362;28;20196;-91
2021/01/27 09:44:21;;;;;;;7.95;6.05;;;2.00;99.90;;;;;;4960491;28;20205;-91
2021/01/27 09:46:48;;;;;;;5.43;4.00;;;1.90;99.90;;;;;;4960062;28;20215;-89
2021/01/27 09:49:15;;;;;;;3.97;3.40;;;2.00;99.90;;;;;;4959811;28;20202;-92
2021/01/27 09:51:48;;;;;;;3.72;3.42;;;2.10;99.90;;;;;;4958542;28;20362;-90
2021/01/27 09:54:17;;;;;;;5.22;3.90;;;2.10;99.90;;;;;;4958163;28;20218;-90
2021/01/27 09:56:46;;;;;;;3.80;3.33;;;2.10;99.90;;;;;;4959942;28;20569;-90
2021/01/27 09:59:16;;;;;;;3.72;3.25;;;2.20;99.90;;;;;;4958184;28;20205;-90
2021/01/27 10:01:46;;;;;;;6.50;4.57;;;2.20;99.90;;;;;;4959406;28;20260;-90
2021/01/27 10:04:15;;;;;;;5.20;4.70;;;2.30;99.90;;;;;;4955369;28;20684;-89
2021/01/27 10:06:45;;;;;;;4.82;4.43;;;2.30;99.90;;;;;;4955340;28;20427;-89
2021/01/27 10:09:20;;;;;;;6.32;4.45;;;2.40;99.90;;;;;;4958143;28;20201;-90
2021/01/27 10:11:47;;;;;;;5.07;4.35;;;2.30;99.90;;;;;;4958834;28;20192;-89
2021/01/27 10:14:21;;;;;;;4.85;4.20;;;2.30;99.90;;;;;;4964193;28;20311;-90
2021/01/27 10:16:51;;;;;;;5.90;4.40;;;2.30;99.90;;;;;;4963129;28;20191;-88
2021/01/27 10:19:24;;;;;;;5.03;4.53;;;2.40;99.90;;;;;;4963778;28;20211;-88
2021/01/27 10:21:53;;;;;;;7.35;5.03;;;2.30;99.90;;;;;;4953124;29;20201;-88
2021/01/27 10:24:42;;;;;;;8.63;5.40;;;2.30;99.90;;;;;;4893416;28;20203;-87
2021/01/27 10:27:09;;;;;;;7.05;5.47;;;2.20;99.90;;;;;;4964147;28;20223;-87
2021/01/27 10:29:36;;;;;;;5.05;4.55;;;2.30;99.90;;;;;;4977840;28;20209;-89
2021/01/27 10:32:26;;;;;;;6.25;5.65;;;2.30;99.90;;;;;;4991876;28;20202;-91
2021/01/27 10:34:54;;;;;;;6.97;6.28;;;2.40;99.90;;;;;;4989994;28;20220;-92
2021/01/27 10:37:33;;;;;;;5.00;4.50;;;2.30;99.90;;;;;;4981777;28;20588;-92
2021/01/27 10:40:25;;;;;;;7.30;6.60;;;2.30;99.90;;;;;;4966284;28;20187;-90
2021/01/27 10:42:57;;;;;;;7.68;6.45;;;2.30;99.90;;;;;;4984996;28;20207;-94
2021/01/27 10:45:38;;;;;;;8.48;6.63;;;2.30;99.90;;;;;;4982652;28;20203;-92
2021/01/27 10:48:20;;;;;;;6.93;6.30;;;2.30;99.90;;;;;;4985370;28;20224;-90
2021/01/27 10:50:52;;;;;;;7.50;6.43;;;2.30;99.90;;;;;;4982890;28;20197;-91
2021/01/27 10:53:20;;;;;;;6.88;5.75;;;2.30;99.90;;;;;;4981441;28;20216;-90
2021/01/27 10:55:56;;;;;;;6.85;6.13;;;2.50;99.90;;;;;;4980434;28;20216;-92
2021/01/27 10:58:24;;;;;;;10.70;6.78;;;2.40;99.90;;;;;;4980437;28;20629;-89
2021/01/27 11:00:51;;;;;;;6.55;5.95;;;2.50;99.90;;;;;;4977964;28;20209;-87
2021/01/27 11:03:18;;;;;;;6.05;5.40;;;2.50;99.90;;;;;;4978931;28;20201;-89
2021/01/27 11:05:45;;;;;;;7.43;6.68;;;2.40;99.90;;;;;;4980345;28;20688;-88
2021/01/27 11:08:15;;;;;;;6.68;5.95;;;2.60;99.90;;;;;;4961918;28;20201;-89
2021/01/27 11:10:41;;;;;;;5.68;5.10;;;2.60;99.90;;;;;;4974814;28;20189;-89
2021/01/27 11:13:08;;;;;;;7.32;5.55;;;2.60;99.90;;;;;;4978403;28;20194;-88
2021/01/27 11:15:34;;;;;;;5.93;5.28;;;2.50;99.90;;;;;;4978370;28;20272;-89
2021/01/27 11:18:00;;;;;;;6.93;5.93;;;2.50;99.90;;;;;;4978395;28;20232;-88
2021/01/27 11:20:27;;;;;;;6.13;5.50;;;2.60;99.90;;;;;;4978416;28;20199;-88
2021/01/27 11:22:54;;;;;;;7.30;5.18;;;2.60;99.90;;;;;;4978809;28;20244;-90
2021/01/27 11:25:25;;;;;;;5.43;4.93;;;2.60;99.90;;;;;;4982466;28;20190;-88
2021/01/27 11:27:52;;;;;;;6.28;5.30;;;2.60;99.90;;;;;;4987113;28;20636;-88
2021/01/27 11:30:22;;;;;;;6.00;5.10;;;2.60;99.90;;;;;;4982962;28;20194;-88
2021/01/27 11:32:48;;;;;;;6.00;5.40;;;2.60;99.90;;;;;;4979764;28;20239;-89
2021/01/27 11:35:16;;;;;;;9.80;5.75;;;2.60;99.90;;;;;;4978217;28;20224;-88
2021/01/27 11:37:43;;;;;;;5.65;5.05;;;2.60;99.90;;;;;;4986549;28;20330;-89
2021/01/27 11:40:11;;;;;;;5.03;4.60;;;2.70;99.90;;;;;;4980180;28;20273;-88
2021/01/27 11:42:38;;;;;;;5.95;4.90;;;2.70;99.90;;;;;;4981227;28;20193;-89
2021/01/27 11:45:07;;;;;;;5.35;4.85;;;2.70;99.90;;;;;;4979384;28;20194;-89
2021/01/27 11:47:35;;;;;;;6.40;4.72;;;2.70;99.90;;;;;;4978605;28;20227;-88
2021/01/27 11:50:02;;;;;;;5.70;4.97;;;2.70;99.90;;;;;;4977883;28;20285;-88
2021/01/27 11:52:28;;;;;;;6.63;5.40;;;2.80;99.90;;;;;;4977780;28;20196;-88
2021/01/27 11:54:55;;;;;;;7.97;5.55;;;2.80;99.90;;;;;;4977161;28;20216;-88
2021/01/27 11:57:21;;;;;;;5.20;4.70;;;2.90;99.90;;;;;;4978399;28;20272;-89
2021/01/27 11:59:48;;;;;;;5.60;5.00;;;2.90;99.90;;;;;;4985051;28;20185;-87
2021/01/27 12:02:15;;;;;;;6.07;5.38;;;3.00;99.90;;;;;;4985560;28;20194;-88
2021/01/27 12:04:41;;;;;;;6.50;5.85;;;3.00;99.90;;;;;;4982890;28;20204;-89
2021/01/27 12:07:07;;;;;;;5.00;4.50;;;3.00;99.90;;;;;;4981418;28;20205;-88
2021/01/27 12:09:35;;;;;;;7.15;6.45;;;3.10;99.90;;;;;;4977361;28;20285;-88
2021/01/27 12:12:02;;;;;;;6.43;5.82;;;3.00;99.90;;;;;;4977298;28;20252;-89
2021/01/27 12:14:29;;;;;;;5.93;5.32;;;3.10;99.90;;;;;;4977086;28;20241;-88
2021/01/27 12:16:56;;;;;;;5.88;5.28;;;3.10;99.90;;;;;;4976754;28;20192;-89
2021/01/27 12:19:22;;;;;;;5.80;4.78;;;3.10;99.90;;;;;;4982543;28;20708;-89
2021/01/27 12:21:49;;;;;;;4.80;4.15;;;3.10;99.90;;;;;;4996030;28;20192;-89
2021/01/27 12:24:15;;;;;;;5.00;4.50;;;3.10;99.90;;;;;;4976795;28;20197;-89
2021/01/27 12:26:42;;;;;;;6.90;5.43;;;3.10;99.90;;;;;;4979442;28;20190;-89
2021/01/27 12:29:08;;;;;;;5.00;3.63;;;3.10;99.90;;;;;;4981225;28;20198;-88
2021/01/27 12:31:35;;;;;;;5.93;5.22;;;3.10;99.90;;;;;;4978757;28;20197;-88
2021/01/27 12:34:03;;;;;;;5.03;4.53;;;3.10;99.90;;;;;;4977098;28;20213;-89
2021/01/27 12:36:30;;;;;;;4.80;3.40;;;3.10;99.90;;;;;;4976895;28;20186;-89
2021/01/27 12:38:56;;;;;;;5.32;4.82;;;3.00;99.90;;;;;;4976443;28;20257;-89
2021/01/27 12:41:22;;;;;;;4.85;4.35;;;3.10;99.90;;;;;;4984595;28;20197;-89
2021/01/27 12:43:50;;;;;;;12.45;10.77;;;3.00;99.90;;;;;;4977134;28;20204;-88
2021/01/27 12:46:16;;;;;;;50.60;45.17;;;3.00;99.90;;;;;;4977118;28;20194;-87
2021/01/27 12:48:42;;;;;;;11.35;10.38;;;3.10;99.90;;;;;;4976605;28;20190;-88
2021/01/27 12:51:10;;;;;;;7.03;6.30;;;3.10;99.90;;;;;;4976282;28;20189;-89
2021/01/27 12:53:36;;;;;;;6.68;5.00;;;3.10;99.90;;;;;;4975930;28;20185;-88
2021/01/27 12:56:03;;;;;;;7.07;4.80;;;3.00;99.90;;;;;;4975980;28;20221;-89
2021/01/27 12:58:29;;;;;;;7.50;6.35;;;3.00;99.90;;;;;;4976359;28;20200;-89
2021/01/27 13:00:56;;;;;;;7.28;6.53;;;3.10;99.90;;;;;;4975811;28;20312;-87
2021/01/27 13:03:22;;;;;;;7.43;6.63;;;3.10;99.90;;;;;;4975798;28;20561;-86
2021/01/27 13:05:50;;;;;;;8.90;8.00;;;3.10;99.90;;;;;;4975838;28;20283;-87
2021/01/27 13:08:17;;;;;;;9.57;7.47;;;3.10;99.90;;;;;;4975443;28;20237;-87
2021/01/27 13:10:43;;;;;;;9.50;8.07;;;3.10;99.90;;;;;;4975713;28;20192;-88
2021/01/27 13:13:10;;;;;;;13.85;10.43;;;3.10;99.90;;;;;;4976094;28;20604;-87
2021/01/27 13:15:36;;;;;;;10.00;9.00;;;3.10;99.90;;;;;;4976177;28;20209;-91
2021/01/27 13:18:03;;;;;;;9.30;8.27;;;3.10;99.90;;;;;;4976900;28;20197;-88
2021/01/27 13:20:30;;;;;;;9.10;8.18;;;3.10;99.90;;;;;;4976946;28;20203;-88
2021/01/27 13:22:56;;;;;;;10.93;8.98;;;3.10;99.90;;;;;;4975251;28;20197;-89